Flight Track Log - Related Links

Times and Time Zones

All times are in EDT time to prevent confusion due to time zone crossing. See the SWA718 flight status page for this flight to view local times or setup timezone preferences in your user account.

Time Position Orientation Groundspeed Altitude Reporting Facility
EDT Latitude Longitude Course Direction KTS MPH feet Rate Location/Type
Fri 11:32:22 PM 41.7406 -87.9028 254° West 202 232 5,900  Level Chicago Center
Fri 11:33:23 PM 41.7781 -87.9833 302° West 266 306 9,100 2,777 Climbing Chicago Center
Fri 11:34:23 PM 41.8131 -88.0747 297° West 298 343 11,500 2,926 Climbing Chicago Center
Fri 11:35:24 PM 41.8081 -88.2042 267° West 348 400 15,000 3,443 Climbing Chicago Center
Fri 11:36:00 PM 41.7333 -88.5434 270° West  Level FlightAware Approximate
Fri 11:36:25 PM 41.8022 -88.3358 267° West 357 411 18,500  Level Chicago Center
Fri 11:37:26 PM 41.7933 -88.5017 266° West 374 430 22,000 3,000 Climbing Chicago Center
Fri 11:38:27 PM 41.7847 -88.6472 266° West 392 451 24,600 2,656 Climbing Chicago Center
Fri 11:39:28 PM 41.7772 -88.7969 266° West 404 465 27,400 2,926 Climbing Chicago Center
Fri 11:40:28 PM 41.7742 -88.9411 268° West 395 455 30,500 2,826 Climbing Chicago Center
Fri 11:41:29 PM 41.7728 -89.0806 269° West 381 438 33,100 1,721 Climbing Chicago Center
Fri 11:42:30 PM 41.7697 -89.2206 268° West 379 436 34,000 446 Climbing Chicago Center
Fri 11:43:30 PM 41.7672 -89.3647 269° West 386 444 34,000  Level Chicago Center
Fri 11:44:31 PM 41.7644 -89.5069 269° West 387 445 34,000 787 Level Chicago Center
Fri 11:45:32 PM 41.7614 -89.6742 269° West 392 451 35,600 1,525 Climbing Chicago Center
Fri 11:46:33 PM 41.7589 -89.8194 269° West 393 452 37,100 1,438 Climbing Chicago Center
Fri 11:47:33 PM 41.7550 -89.9669 268° West 397 457 38,500 1,339 Climbing Chicago Center
Fri 11:48:34 PM 41.7522 -90.1136 269° West 397 457 39,800 738 Climbing Chicago Center
Fri 11:49:35 PM 41.7483 -90.2594 268° West 395 455 40,000 98 Climbing Chicago Center
Fri 11:50:36 PM 41.7428 -90.4128 267° West 407 468 40,000  Level Chicago Center
Fri 11:51:36 PM 41.7389 -90.5603 268° West 399 459 40,000  Level Chicago Center
Fri 11:52:37 PM 41.7339 -90.7103 267° West 397 457 40,000  Level Chicago Center
Fri 11:53:38 PM 41.7292 -90.8556 268° West 395 455 40,000  Level Chicago Center
Fri 11:54:39 PM 41.7250 -91.0017 268° West 395 455 40,000  Level Chicago Center
Fri 11:55:39 PM 41.7194 -91.1475 267° West 395 455 40,000  Level Chicago Center
Fri 11:56:40 PM 41.7153 -91.2931 268° West 394 453 40,000  Level Chicago Center
Fri 11:57:41 PM 41.7092 -91.4389 267° West 396 456 40,000  Level Chicago Center
Fri 11:58:41 PM 41.7042 -91.5858 267° West 397 457 40,000  Level Chicago Center
Fri 11:59:44 PM 41.6961 -91.7647 267° West 397 457 40,000  Level Chicago Center
Sat 12:00:45 AM 41.6917 -91.9111 268° West 400 460 40,000  Level Chicago Center
Sat 12:01:46 AM 41.6850 -92.0583 267° West 399 459 40,000  Level Chicago Center
Sat 12:02:46 AM 41.6783 -92.2094 267° West 403 464 40,000  Level Chicago Center
Sat 12:03:47 AM 41.6717 -92.3567 267° West 401 461 40,000  Level Chicago Center
Sat 12:04:48 AM 41.6647 -92.5050 266° West 400 460 40,000  Level Chicago Center
Sat 12:05:48 AM 41.6575 -92.6514 266° West 398 458 40,000  Level Chicago Center
Sat 12:06:24 AM 41.6528 -92.7403 266° West 400 460 40,000  Level Minneapolis Center
Sat 12:07:25 AM 41.6458 -92.8886 266° West 401 461 40,000  Level Minneapolis Center
Sat 12:08:25 AM 41.6386 -93.0372 266° West 403 464 40,000  Level Minneapolis Center
Sat 12:09:26 AM 41.6300 -93.1875 266° West 408 470 40,000  Level Minneapolis Center
Sat 12:10:27 AM 41.6225 -93.3350 266° West 404 465 40,000  Level Minneapolis Center
Sat 12:11:27 AM 41.6136 -93.5150 266° West 408 470 40,000 -942 Level Minneapolis Center
Sat 12:12:28 AM 41.6036 -93.6647 265° West 409 471 38,100 -2,281 Descending Minneapolis Center
Sat 12:13:28 AM 41.5950 -93.8156 266° West 410 472 35,400 -2,628 Descending Minneapolis Center
Sat 12:14:29 AM 41.5889 -93.9656 267° West 410 472 32,800 -2,459 Descending Minneapolis Center
Sat 12:15:30 AM 41.5800 -94.1164 266° West 412 474 30,400 -2,380 Descending Minneapolis Center
Sat 12:16:30 AM 41.5694 -94.2706 265° West 408 470 28,000 -2,182 Descending Minneapolis Center
Sat 12:17:31 AM 41.5600 -94.4161 265° West 398 458 26,000 -1,934 Descending Minneapolis Center
Sat 12:18:31 AM 41.5500 -94.5519 264° West 375 432 24,100 -1,835 Descending Minneapolis Center
Sat 12:19:32 AM 41.5425 -94.6847 266° West 362 417 22,300 -1,838 Descending Minneapolis Center
Sat 12:20:22 AM 41.5475 -94.8117 273° West 359 413 20,700 -2,027 Descending Minneapolis Center
Sat 12:20:46 AM 41.5436 -94.8736 265° West 360 414 19,800 -1,690 Descending Minneapolis Center
Sat 12:21:33 AM 41.5247 -94.9469 251° West 355 409 18,700 -1,556 Descending Minneapolis Center
Sat 12:22:34 AM 41.5172 -95.0744 266° West 346 398 17,000 -1,636 Descending Minneapolis Center
Sat 12:23:34 AM 41.5053 -95.2000 263° West 343 395 15,400 -1,689 Descending Minneapolis Center
Sat 12:24:49 AM 41.4744 -95.3617 256° West 318 366 13,200 -1,438 Descending Minneapolis Center
Sat 12:25:35 AM 41.4517 -95.4231 244° Southwest 320 368 12,500 -1,907 Descending Minneapolis Center
Sat 12:26:36 AM 41.4297 -95.5311 255° West 311 358 9,800 -1,770 Descending Minneapolis Center
Sat 12:27:37 AM 41.4242 -95.6411 266° West 301 346 8,900 -744 Descending Minneapolis Center
Sat 12:28:37 AM 41.4150 -95.7358 263° West 278 320 8,300 -645 Descending Minneapolis Center
Sat 12:29:38 AM 41.4108 -95.8033 265° West 223 257 7,600 -1,190 Descending Minneapolis Center
Sat 12:30:38 AM 41.4272 -95.8572 292° West 180 207 5,900 -1,686 Descending Minneapolis Center
Sat 12:31:39 AM 41.4078 -95.9158 246° West 169 194 4,200 -1,537 Descending Minneapolis Center
Sat 12:32:39 AM 41.3742 -95.9456 214° Southwest 155 178 2,800 -1,360 Descending Minneapolis Center
Sat 12:32:54 AM 41.3661 -95.9558 224° Southwest 142 163 2,500 -885 Descending Minneapolis Center
Sat 12:33:40 AM 41.3467 -95.9361 143° Southeast 148 170 1,900 -792 Descending Minneapolis Center
Sat 12:34:40 AM 41.3169 -95.9089 145° Southeast 136 157 1,100 -800 Descending Minneapolis Center

Login

Don't have an account? Register now (free) for customized features, flight alerts, and more!